sensor_id;sensor_type;location;lat;lon;timestamp;pressure;altitude;pressure_sealevel;temperature;humidity
69257;BME280;56376;53.356;-1.748;2023-03-17T00:02:07;97973.97;;;8.70;100.00
69257;BME280;56376;53.356;-1.748;2023-03-17T00:04:33;97976.66;;;8.68;100.00
69257;BME280;56376;53.356;-1.748;2023-03-17T00:06:58;97965.41;;;8.68;100.00
69257;BME280;56376;53.356;-1.748;2023-03-17T00:09:24;97962.03;;;8.65;100.00
69257;BME280;56376;53.356;-1.748;2023-03-17T00:11:50;97968.91;;;8.66;100.00
69257;BME280;56376;53.356;-1.748;2023-03-17T00:14:16;97962.97;;;8.64;100.00
69257;BME280;56376;53.356;-1.748;2023-03-17T00:16:47;97967.25;;;8.65;100.00
69257;BME280;56376;53.356;-1.748;2023-03-17T00:19:28;97968.91;;;8.66;100.00
69257;BME280;56376;53.356;-1.748;2023-03-17T00:21:56;97965.47;;;8.66;100.00
69257;BME280;56376;53.356;-1.748;2023-03-17T00:24:22;97969.09;;;8.63;100.00
69257;BME280;56376;53.356;-1.748;2023-03-17T00:26:48;97963.03;;;8.63;100.00
69257;BME280;56376;53.356;-1.748;2023-03-17T00:29:13;97969.09;;;8.63;100.00
69257;BME280;56376;53.356;-1.748;2023-03-17T00:31:42;97970.91;;;8.61;100.00
69257;BME280;56376;53.356;-1.748;2023-03-17T00:34:15;97967.41;;;8.62;100.00
69257;BME280;56376;53.356;-1.748;2023-03-17T00:36:41;97963.13;;;8.61;100.00
69257;BME280;56376;53.356;-1.748;2023-03-17T00:39:13;97965.66;;;8.63;100.00
69257;BME280;56376;53.356;-1.748;2023-03-17T00:41:39;97968.06;;;8.66;100.00
69257;BME280;56376;53.356;-1.748;2023-03-17T00:44:04;97959.44;;;8.65;100.00
69257;BME280;56376;53.356;-1.748;2023-03-17T00:46:31;97973.38;;;8.64;100.00
69257;BME280;56376;53.356;-1.748;2023-03-17T00:49:16;97966.59;;;8.62;100.00
69257;BME280;56376;53.356;-1.748;2023-03-17T00:51:45;97970.91;;;8.61;100.00
69257;BME280;56376;53.356;-1.748;2023-03-17T00:54:12;97964.03;;;8.60;100.00
69257;BME280;56376;53.356;-1.748;2023-03-17T00:56:39;97960.69;;;8.58;100.00
69257;BME280;56376;53.356;-1.748;2023-03-17T00:59:16;97964.22;;;8.57;100.00
69257;BME280;56376;53.356;-1.748;2023-03-17T01:01:43;97970.59;;;8.52;100.00
69257;BME280;56376;53.356;-1.748;2023-03-17T01:04:09;97967.13;;;8.51;100.00
69257;BME280;56376;53.356;-1.748;2023-03-17T01:06:35;97968.97;;;8.49;100.00
69257;BME280;56376;53.356;-1.748;2023-03-17T01:09:02;97974.16;;;8.49;100.00
69257;BME280;56376;53.356;-1.748;2023-03-17T01:11:29;97982.97;;;8.47;100.00
69257;BME280;56376;53.356;-1.748;2023-03-17T01:13:55;97973.56;;;8.44;100.00
69257;BME280;56376;53.356;-1.748;2023-03-17T01:16:20;97977.09;;;8.43;100.00
69257;BME280;56376;53.356;-1.748;2023-03-17T01:18:46;97970.22;;;8.42;100.00
69257;BME280;56376;53.356;-1.748;2023-03-17T01:21:12;97977.28;;;8.40;100.00
69257;BME280;56376;53.356;-1.748;2023-03-17T01:23:38;97974.69;;;8.38;100.00
69257;BME280;56376;53.356;-1.748;2023-03-17T01:26:03;97978.25;;;8.37;100.00
69257;BME280;56376;53.356;-1.748;2023-03-17T01:28:29;97965.22;;;8.37;100.00
69257;BME280;56376;53.356;-1.748;2023-03-17T01:30:55;97971.28;;;8.38;100.00
69257;BME280;56376;53.356;-1.748;2023-03-17T01:33:21;97973.88;;;8.38;100.00
69257;BME280;56376;53.356;-1.748;2023-03-17T01:35:46;97969.66;;;8.35;100.00
69257;BME280;56376;53.356;-1.748;2023-03-17T01:38:12;97967.13;;;8.34;100.00
69257;BME280;56376;53.356;-1.748;2023-03-17T01:40:44;97975.69;;;8.36;100.00
69257;BME280;56376;53.356;-1.748;2023-03-17T01:48:42;97962.78;;;8.34;100.00
69257;BME280;56376;53.356;-1.748;2023-03-17T01:51:45;97969.00;;;8.32;100.00
69257;BME280;56376;53.356;-1.748;2023-03-17T01:54:07;97974.19;;;8.32;100.00
69257;BME280;56376;53.356;-1.748;2023-03-17T01:56:33;97983.75;;;8.31;100.00
69257;BME280;56376;53.356;-1.748;2023-03-17T01:59:02;97972.50;;;8.31;100.00
69257;BME280;56376;53.356;-1.748;2023-03-17T02:01:35;97970.00;;;8.29;100.00
69257;BME280;56376;53.356;-1.748;2023-03-17T02:04:02;97980.47;;;8.28;100.00
69257;BME280;56376;53.356;-1.748;2023-03-17T02:06:29;97971.91;;;8.26;100.00
69257;BME280;56376;53.356;-1.748;2023-03-17T02:08:56;97976.28;;;8.25;100.00
69257;BME280;56376;53.356;-1.748;2023-03-17T02:11:23;97976.34;;;8.23;100.00
69257;BME280;56376;53.356;-1.748;2023-03-17T02:13:48;97981.69;;;8.20;100.00
69257;BME280;56376;53.356;-1.748;2023-03-17T02:16:15;97973.00;;;8.21;100.00
69257;BME280;56376;53.356;-1.748;2023-03-17T02:18:42;97977.44;;;8.19;100.00
69257;BME280;56376;53.356;-1.748;2023-03-17T02:24:08;97975.91;;;8.15;100.00
69257;BME280;56376;53.356;-1.748;2023-03-17T02:26:35;97972.53;;;8.13;100.00
69257;BME280;56376;53.356;-1.748;2023-03-17T02:29:00;97969.09;;;8.13;100.00
69257;BME280;56376;53.356;-1.748;2023-03-17T02:31:26;97962.22;;;8.12;100.00
69257;BME280;56376;53.356;-1.748;2023-03-17T02:33:53;97957.03;;;8.12;100.00
69257;BME280;56376;53.356;-1.748;2023-03-17T02:36:19;97961.28;;;8.13;100.00
69257;BME280;56376;53.356;-1.748;2023-03-17T02:38:44;97953.66;;;8.10;100.00
69257;BME280;56376;53.356;-1.748;2023-03-17T02:41:10;97956.09;;;8.13;100.00
69257;BME280;56376;53.356;-1.748;2023-03-17T02:43:35;97958.75;;;8.11;100.00
69257;BME280;56376;53.356;-1.748;2023-03-17T02:46:02;97951.06;;;8.10;100.00
69257;BME280;56376;53.356;-1.748;2023-03-17T02:48:27;97954.47;;;8.10;100.00
69257;BME280;56376;53.356;-1.748;2023-03-17T02:50:53;97956.16;;;8.11;100.00
69257;BME280;56376;53.356;-1.748;2023-03-17T02:53:18;97957.09;;;8.10;100.00
69257;BME280;56376;53.356;-1.748;2023-03-17T02:55:44;97960.69;;;8.08;100.00
69257;BME280;56376;53.356;-1.748;2023-03-17T02:58:09;97949.50;;;8.06;100.00
69257;BME280;56376;53.356;-1.748;2023-03-17T03:00:34;97948.69;;;8.05;100.00
69257;BME280;56376;53.356;-1.748;2023-03-17T03:03:00;97954.66;;;8.07;100.00
69257;BME280;56376;53.356;-1.748;2023-03-17T03:05:25;97945.09;;;8.08;100.00
69257;BME280;56376;53.356;-1.748;2023-03-17T03:07:51;97951.94;;;8.09;100.00
69257;BME280;56376;53.356;-1.748;2023-03-17T03:10:17;97954.47;;;8.10;100.00
69257;BME280;56376;53.356;-1.748;2023-03-17T03:12:43;97953.66;;;8.10;100.00
69257;BME280;56376;53.356;-1.748;2023-03-17T03:15:09;97957.91;;;8.11;100.00
69257;BME280;56376;53.356;-1.748;2023-03-17T03:17:35;97955.41;;;8.09;100.00
69257;BME280;56376;53.356;-1.748;2023-03-17T03:20:00;97960.47;;;8.12;100.00
69257;BME280;56376;53.356;-1.748;2023-03-17T03:22:26;97957.03;;;8.12;100.00
69257;BME280;56376;53.356;-1.748;2023-03-17T03:24:52;97957.03;;;8.12;100.00
69257;BME280;56376;53.356;-1.748;2023-03-17T03:27:17;97961.34;;;8.11;100.00
69257;BME280;56376;53.356;-1.748;2023-03-17T03:29:42;97953.56;;;8.11;100.00
69257;BME280;56376;53.356;-1.748;2023-03-17T03:32:08;97950.22;;;8.09;100.00
69257;BME280;56376;53.356;-1.748;2023-03-17T03:34:33;97944.91;;;8.11;100.00
69257;BME280;56376;53.356;-1.748;2023-03-17T03:36:59;97946.84;;;8.07;100.00
69257;BME280;56376;53.356;-1.748;2023-03-17T03:39:24;97953.81;;;8.07;100.00
69257;BME280;56376;53.356;-1.748;2023-03-17T03:41:50;97946.00;;;8.07;100.00
69257;BME280;56376;53.356;-1.748;2023-03-17T03:44:16;97948.75;;;8.03;100.00
69257;BME280;56376;53.356;-1.748;2023-03-17T03:46:41;97955.56;;;8.06;100.00
69257;BME280;56376;53.356;-1.748;2023-03-17T03:49:07;97948.75;;;8.03;100.00
69257;BME280;56376;53.356;-1.748;2023-03-17T03:51:32;97951.59;;;7.99;100.00
69257;BME280;56376;53.356;-1.748;2023-03-17T03:53:57;97951.66;;;7.97;100.00
69257;BME280;56376;53.356;-1.748;2023-03-17T03:56:23;97954.22;;;7.99;100.00
69257;BME280;56376;53.356;-1.748;2023-03-17T03:58:48;97954.22;;;7.99;100.00
69257;BME280;56376;53.356;-1.748;2023-03-17T04:01:14;97963.84;;;7.97;100.00
69257;BME280;56376;53.356;-1.748;2023-03-17T04:03:39;97956.09;;;7.95;100.00
69257;BME280;56376;53.356;-1.748;2023-03-17T04:06:05;97963.13;;;7.93;100.00
69257;BME280;56376;53.356;-1.748;2023-03-17T04:08:30;97970.09;;;7.93;100.00
69257;BME280;56376;53.356;-1.748;2023-03-17T04:10:57;97970.19;;;7.91;100.00
69257;BME280;56376;53.356;-1.748;2023-03-17T04:13:23;97975.47;;;7.90;100.00
69257;BME280;56376;53.356;-1.748;2023-03-17T04:15:48;97971.25;;;7.87;100.00
69257;BME280;56376;53.356;-1.748;2023-03-17T04:18:14;97982.44;;;7.89;100.00
69257;BME280;56376;53.356;-1.748;2023-03-17T04:20:40;97981.59;;;7.89;100.00
69257;BME280;56376;53.356;-1.748;2023-03-17T04:23:05;97989.28;;;7.90;100.00
69257;BME280;56376;53.356;-1.748;2023-03-17T04:25:32;97984.88;;;7.92;100.00
69257;BME280;56376;53.356;-1.748;2023-03-17T04:27:57;97987.47;;;7.92;100.00
69257;BME280;56376;53.356;-1.748;2023-03-17T04:30:22;97979.72;;;7.91;100.00
69257;BME280;56376;53.356;-1.748;2023-03-17T04:32:48;98002.22;;;7.92;100.00
69257;BME280;56376;53.356;-1.748;2023-03-17T04:35:17;98000.41;;;7.94;100.00
69257;BME280;56376;53.356;-1.748;2023-03-17T04:37:43;98002.13;;;7.93;100.00
69257;BME280;56376;53.356;-1.748;2023-03-17T04:40:10;97990.84;;;7.94;100.00
69257;BME280;56376;53.356;-1.748;2023-03-17T04:42:36;97984.69;;;7.95;100.00
69257;BME280;56376;53.356;-1.748;2023-03-17T04:45:06;97976.06;;;7.95;100.00
69257;BME280;56376;53.356;-1.748;2023-03-17T04:47:33;97966.59;;;7.94;100.00
69257;BME280;56376;53.356;-1.748;2023-03-17T04:49:59;97955.34;;;7.93;100.00
69257;BME280;56376;53.356;-1.748;2023-03-17T04:52:25;97950.06;;;7.95;100.00
69257;BME280;56376;53.356;-1.748;2023-03-17T04:54:51;97957.03;;;7.94;100.00
69257;BME280;56376;53.356;-1.748;2023-03-17T04:57:16;97955.19;;;7.96;100.00
69257;BME280;56376;53.356;-1.748;2023-03-17T04:59:42;97958.63;;;7.97;100.00
69257;BME280;56376;53.356;-1.748;2023-03-17T05:02:07;97963.84;;;7.97;100.00
69257;BME280;56376;53.356;-1.748;2023-03-17T05:04:33;97954.44;;;7.94;100.00
69257;BME280;56376;53.356;-1.748;2023-03-17T05:06:59;97957.94;;;7.93;100.00
69257;BME280;56376;53.356;-1.748;2023-03-17T05:09:25;97969.19;;;7.94;100.00
69257;BME280;56376;53.356;-1.748;2023-03-17T05:11:51;97979.66;;;7.92;100.00
69257;BME280;56376;53.356;-1.748;2023-03-17T05:14:16;97970.94;;;7.93;100.00
69257;BME280;56376;53.356;-1.748;2023-03-17T05:16:42;97974.41;;;7.94;100.00
69257;BME280;56376;53.356;-1.748;2023-03-17T05:19:07;97971.88;;;7.92;100.00
69257;BME280;56376;53.356;-1.748;2023-03-17T05:21:33;97974.41;;;7.94;100.00
69257;BME280;56376;53.356;-1.748;2023-03-17T05:23:58;97974.47;;;7.92;100.00
69257;BME280;56376;53.356;-1.748;2023-03-17T05:26:24;97978.91;;;7.90;100.00
69257;BME280;56376;53.356;-1.748;2023-03-17T05:28:50;97979.81;;;7.89;100.00
69257;BME280;56376;53.356;-1.748;2023-03-17T05:31:15;97987.69;;;7.88;100.00
69257;BME280;56376;53.356;-1.748;2023-03-17T05:33:43;97993.81;;;7.87;100.00
69257;BME280;56376;53.356;-1.748;2023-03-17T05:36:08;97981.88;;;7.83;100.00
69257;BME280;56376;53.356;-1.748;2023-03-17T05:38:34;97985.41;;;7.82;100.00
69257;BME280;56376;53.356;-1.748;2023-03-17T05:41:00;97987.13;;;7.81;100.00
69257;BME280;56376;53.356;-1.748;2023-03-17T05:43:26;97991.50;;;7.80;100.00
69257;BME280;56376;53.356;-1.748;2023-03-17T05:45:51;98000.22;;;7.79;100.00
69257;BME280;56376;53.356;-1.748;2023-03-17T05:48:17;98017.59;;;7.79;100.00
69257;BME280;56376;53.356;-1.748;2023-03-17T05:50:42;98014.22;;;7.77;100.00
69257;BME280;56376;53.356;-1.748;2023-03-17T05:53:08;98012.63;;;7.74;100.00
69257;BME280;56376;53.356;-1.748;2023-03-17T05:55:34;97996.25;;;7.72;100.00
69257;BME280;56376;53.356;-1.748;2023-03-17T05:58:00;98009.25;;;7.72;100.00
69257;BME280;56376;53.356;-1.748;2023-03-17T06:00:28;98001.44;;;7.72;100.00
69257;BME280;56376;53.356;-1.748;2023-03-17T06:02:53;98015.38;;;7.71;100.00
69257;BME280;56376;53.356;-1.748;2023-03-17T06:05:19;98006.81;;;7.69;100.00
69257;BME280;56376;53.356;-1.748;2023-03-17T06:07:44;98007.56;;;7.71;100.00
69257;BME280;56376;53.356;-1.748;2023-03-17T06:10:11;98006.66;;;7.72;100.00
69257;BME280;56376;53.356;-1.748;2023-03-17T06:12:36;98005.88;;;7.70;100.00
69257;BME280;56376;53.356;-1.748;2023-03-17T06:15:02;98023.91;;;7.73;100.00
69257;BME280;56376;53.356;-1.748;2023-03-17T06:17:27;98017.03;;;7.72;100.00
69257;BME280;56376;53.356;-1.748;2023-03-17T06:19:53;98018.88;;;7.70;100.00
69257;BME280;56376;53.356;-1.748;2023-03-17T06:22:19;98024.06;;;7.70;100.00
69257;BME280;56376;53.356;-1.748;2023-03-17T06:24:45;98027.59;;;7.69;100.00
69257;BME280;56376;53.356;-1.748;2023-03-17T06:27:11;98026.75;;;7.69;100.00
69257;BME280;56376;53.356;-1.748;2023-03-17T06:29:38;98016.47;;;7.66;100.00
69257;BME280;56376;53.356;-1.748;2023-03-17T06:32:04;97994.03;;;7.65;100.00
69257;BME280;56376;53.356;-1.748;2023-03-17T06:34:29;97997.56;;;7.64;100.00
69257;BME280;56376;53.356;-1.748;2023-03-17T06:36:55;98001.06;;;7.63;100.00
69257;BME280;56376;53.356;-1.748;2023-03-17T06:39:21;97994.25;;;7.60;100.00
69257;BME280;56376;53.356;-1.748;2023-03-17T06:41:46;97992.72;;;7.56;100.00
69257;BME280;56376;53.356;-1.748;2023-03-17T06:44:12;97990.97;;;7.56;100.00
69257;BME280;56376;53.356;-1.748;2023-03-17T06:46:38;97997.16;;;7.54;100.00
69257;BME280;56376;53.356;-1.748;2023-03-17T06:49:03;98019.59;;;7.55;100.00
69257;BME280;56376;53.356;-1.748;2023-03-17T06:51:29;98030.16;;;7.52;100.00
69257;BME280;56376;53.356;-1.748;2023-03-17T06:53:56;98031.97;;;7.50;100.00
69257;BME280;56376;53.356;-1.748;2023-03-17T06:56:22;98046.66;;;7.51;100.00
69257;BME280;56376;53.356;-1.748;2023-03-17T06:58:48;98054.53;;;7.49;100.00
69257;BME280;56376;53.356;-1.748;2023-03-17T07:01:13;98055.31;;;7.51;100.00
69257;BME280;56376;53.356;-1.748;2023-03-17T07:03:40;98057.03;;;7.51;100.00
69257;BME280;56376;53.356;-1.748;2023-03-17T07:06:06;98057.91;;;7.51;100.00
69257;BME280;56376;53.356;-1.748;2023-03-17T07:08:31;98056.28;;;7.49;100.00
69257;BME280;56376;53.356;-1.748;2023-03-17T07:10:58;98066.53;;;7.52;100.00
69257;BME280;56376;53.356;-1.748;2023-03-17T07:13:23;98073.34;;;7.54;100.00
69257;BME280;56376;53.356;-1.748;2023-03-17T07:15:50;98062.88;;;7.56;100.00
69257;BME280;56376;53.356;-1.748;2023-03-17T07:18:16;98067.09;;;7.58;100.00
69257;BME280;56376;53.356;-1.748;2023-03-17T07:20:42;98059.22;;;7.60;100.00
69257;BME280;56376;53.356;-1.748;2023-03-17T07:23:28;98053.94;;;7.62;100.00
69257;BME280;56376;53.356;-1.748;2023-03-17T07:25:54;98055.72;;;7.61;100.00
69257;BME280;56376;53.356;-1.748;2023-03-17T07:28:21;98063.34;;;7.64;100.00
69257;BME280;56376;53.356;-1.748;2023-03-17T07:30:48;98065.88;;;7.66;100.00
69257;BME280;56376;53.356;-1.748;2023-03-17T07:33:14;98056.34;;;7.66;100.00
69257;BME280;56376;53.356;-1.748;2023-03-17T07:35:42;98064.03;;;7.68;100.00
69257;BME280;56376;53.356;-1.748;2023-03-17T07:38:08;98057.94;;;7.69;100.00
69257;BME280;56376;53.356;-1.748;2023-03-17T07:40:33;98054.34;;;7.71;100.00
69257;BME280;56376;53.356;-1.748;2023-03-17T07:42:59;98057.69;;;7.73;100.00
69257;BME280;56376;53.356;-1.748;2023-03-17T07:45:25;98062.00;;;7.74;100.00
69257;BME280;56376;53.356;-1.748;2023-03-17T07:47:50;98055.81;;;7.77;100.00
69257;BME280;56376;53.356;-1.748;2023-03-17T07:50:16;98064.38;;;7.79;100.00
69257;BME280;56376;53.356;-1.748;2023-03-17T07:52:42;98063.38;;;7.82;100.00
69257;BME280;56376;53.356;-1.748;2023-03-17T07:55:08;98073.56;;;7.86;100.00
69257;BME280;56376;53.356;-1.748;2023-03-17T07:57:35;98078.63;;;7.89;100.00
69257;BME280;56376;53.356;-1.748;2023-03-17T08:00:02;98081.91;;;7.93;100.00
69257;BME280;56376;53.356;-1.748;2023-03-17T08:02:28;98076.63;;;7.94;100.00
69257;BME280;56376;53.356;-1.748;2023-03-17T08:04:53;98080.75;;;7.98;100.00
69257;BME280;56376;53.356;-1.748;2023-03-17T08:07:19;98070.28;;;8.00;100.00
69257;BME280;56376;53.356;-1.748;2023-03-17T08:09:44;98072.72;;;8.03;100.00
69257;BME280;56376;53.356;-1.748;2023-03-17T08:12:11;98056.22;;;8.04;100.00
69257;BME280;56376;53.356;-1.748;2023-03-17T08:14:36;98068.25;;;8.07;100.00
69257;BME280;56376;53.356;-1.748;2023-03-17T08:17:01;98069.06;;;8.07;100.00
69257;BME280;56376;53.356;-1.748;2023-03-17T08:19:27;98076.66;;;8.12;100.00
69257;BME280;56376;53.356;-1.748;2023-03-17T08:21:52;98072.13;;;8.15;100.00
69257;BME280;56376;53.356;-1.748;2023-03-17T08:24:18;98085.84;;;8.19;100.00
69257;BME280;56376;53.356;-1.748;2023-03-17T08:26:46;98089.28;;;8.19;100.00
69257;BME280;56376;53.356;-1.748;2023-03-17T08:29:13;98090.19;;;8.18;100.00
69257;BME280;56376;53.356;-1.748;2023-03-17T08:31:39;98080.53;;;8.20;100.00
69257;BME280;56376;53.356;-1.748;2023-03-17T08:34:05;98085.75;;;8.20;100.00
69257;BME280;56376;53.356;-1.748;2023-03-17T08:36:31;98096.84;;;8.24;100.00
69257;BME280;56376;53.356;-1.748;2023-03-17T08:38:57;98081.94;;;8.28;100.00
69257;BME280;56376;53.356;-1.748;2023-03-17T08:41:24;98079.25;;;8.29;100.00
69257;BME280;56376;53.356;-1.748;2023-03-17T08:43:51;98087.97;;;8.28;100.00
69257;BME280;56376;53.356;-1.748;2023-03-17T08:46:20;98085.31;;;8.30;100.00
69257;BME280;56376;53.356;-1.748;2023-03-17T08:48:47;98089.66;;;8.29;100.00
69257;BME280;56376;53.356;-1.748;2023-03-17T08:51:13;98086.06;;;8.32;100.00
69257;BME280;56376;53.356;-1.748;2023-03-17T08:53:39;98084.22;;;8.34;100.00
69257;BME280;56376;53.356;-1.748;2023-03-17T08:56:05;98084.22;;;8.34;100.00
69257;BME280;56376;53.356;-1.748;2023-03-17T08:58:32;98083.31;;;8.35;100.00
69257;BME280;56376;53.356;-1.748;2023-03-17T09:00:59;98091.94;;;8.35;100.00
69257;BME280;56376;53.356;-1.748;2023-03-17T09:03:26;98088.41;;;8.36;100.00
69257;BME280;56376;53.356;-1.748;2023-03-17T09:05:52;98080.59;;;8.36;100.00
69257;BME280;56376;53.356;-1.748;2023-03-17T09:08:18;98089.16;;;8.40;100.00
69257;BME280;56376;53.356;-1.748;2023-03-17T09:10:43;98078.75;;;8.40;100.00
69257;BME280;56376;53.356;-1.748;2023-03-17T09:13:09;98081.34;;;8.40;100.00
69257;BME280;56376;53.356;-1.748;2023-03-17T09:15:34;98084.72;;;8.42;100.00
69257;BME280;56376;53.356;-1.748;2023-03-17T09:18:01;98094.19;;;8.43;100.00
69257;BME280;56376;53.356;-1.748;2023-03-17T09:20:27;98090.44;;;8.49;100.00
69257;BME280;56376;53.356;-1.748;2023-03-17T09:22:53;98089.31;;;8.54;100.00
69257;BME280;56376;53.356;-1.748;2023-03-17T09:25:18;98092.50;;;8.59;100.00
69257;BME280;56376;53.356;-1.748;2023-03-17T09:27:43;98090.50;;;8.64;100.00
69257;BME280;56376;53.356;-1.748;2023-03-17T09:30:10;98094.56;;;8.70;100.00
69257;BME280;56376;53.356;-1.748;2023-03-17T09:32:38;98082.97;;;8.76;100.00
69257;BME280;56376;53.356;-1.748;2023-03-17T09:35:04;98094.16;;;8.78;100.00
69257;BME280;56376;53.356;-1.748;2023-03-17T09:37:29;98112.38;;;8.78;100.00
69257;BME280;56376;53.356;-1.748;2023-03-17T09:39:55;98113.00;;;8.83;100.00
69257;BME280;56376;53.356;-1.748;2023-03-17T09:51:13;98132.69;;;9.38;100.00
69257;BME280;56376;53.356;-1.748;2023-03-17T09:53:56;98114.38;;;9.55;100.00
69257;BME280;56376;53.356;-1.748;2023-03-17T09:56:25;98114.56;;;9.68;100.00
69257;BME280;56376;53.356;-1.748;2023-03-17T10:01:56;98099.09;;;10.11;100.00
69257;BME280;56376;53.356;-1.748;2023-03-17T10:04:21;98104.13;;;10.30;100.00
69257;BME280;56376;53.356;-1.748;2023-03-17T10:06:48;98114.50;;;10.46;100.00
69257;BME280;56376;53.356;-1.748;2023-03-17T10:11:49;98108.28;;;10.63;100.00
69257;BME280;56376;53.356;-1.748;2023-03-17T10:14:36;98123.50;;;10.70;100.00
69257;BME280;56376;53.356;-1.748;2023-03-17T10:17:24;98117.19;;;10.74;100.00
69257;BME280;56376;53.356;-1.748;2023-03-17T10:19:57;98113.91;;;10.71;100.00
69257;BME280;56376;53.356;-1.748;2023-03-17T10:22:41;98106.25;;;10.68;100.00
69257;BME280;56376;53.356;-1.748;2023-03-17T10:25:19;98114.19;;;10.66;100.00
69257;BME280;56376;53.356;-1.748;2023-03-17T10:27:57;98103.91;;;10.63;100.00
69257;BME280;56376;53.356;-1.748;2023-03-17T10:30:25;98099.72;;;10.60;100.00
69257;BME280;56376;53.356;-1.748;2023-03-17T10:32:51;98100.91;;;10.55;100.00
69257;BME280;56376;53.356;-1.748;2023-03-17T10:35:18;98102.78;;;10.53;100.00
69257;BME280;56376;53.356;-1.748;2023-03-17T10:37:49;98098.50;;;10.52;100.00
69257;BME280;56376;53.356;-1.748;2023-03-17T10:40:26;98101.75;;;10.55;100.00
69257;BME280;56376;53.356;-1.748;2023-03-17T10:43:00;98100.47;;;10.63;100.00
69257;BME280;56376;53.356;-1.748;2023-03-17T10:45:28;98107.56;;;10.75;100.00
69257;BME280;56376;53.356;-1.748;2023-03-17T10:47:56;98108.44;;;10.90;100.00
69257;BME280;56376;53.356;-1.748;2023-03-17T10:50:35;98106.75;;;11.03;100.00
69257;BME280;56376;53.356;-1.748;2023-03-17T10:53:08;98102.00;;;11.10;100.00
69257;BME280;56376;53.356;-1.748;2023-03-17T10:58:04;98091.06;;;11.32;100.00
69257;BME280;56376;53.356;-1.748;2023-03-17T11:00:33;98096.09;;;11.49;100.00
69257;BME280;56376;53.356;-1.748;2023-03-17T11:03:10;98093.41;;;11.63;100.00
69257;BME280;56376;53.356;-1.748;2023-03-17T11:05:39;98092.34;;;11.80;100.00
69257;BME280;56376;53.356;-1.748;2023-03-17T11:08:14;98099.34;;;11.94;100.00
69257;BME280;56376;53.356;-1.748;2023-03-17T11:10:41;98098.53;;;12.06;100.00
69257;BME280;56376;53.356;-1.748;2023-03-17T11:13:06;98093.34;;;12.19;100.00
69257;BME280;56376;53.356;-1.748;2023-03-17T11:15:51;98081.97;;;12.33;100.00
69257;BME280;56376;53.356;-1.748;2023-03-17T11:18:21;98090.47;;;12.49;100.00
69257;BME280;56376;53.356;-1.748;2023-03-17T11:32:24;98109.91;;;13.11;100.00
69257;BME280;56376;53.356;-1.748;2023-03-17T11:40:28;98111.75;;;13.47;100.00
69257;BME280;56376;53.356;-1.748;2023-03-17T11:46:12;98100.03;;;13.77;100.00
69257;BME280;56376;53.356;-1.748;2023-03-17T11:48:58;98103.44;;;13.90;100.00
69257;BME280;56376;53.356;-1.748;2023-03-17T11:54:20;98106.50;;;14.08;100.00
69257;BME280;56376;53.356;-1.748;2023-03-17T11:56:53;98112.22;;;14.02;99.09
69257;BME280;56376;53.356;-1.748;2023-03-17T12:02:27;98116.63;;;14.01;99.04
69257;BME280;56376;53.356;-1.748;2023-03-17T12:05:07;98114.66;;;13.92;97.52
69257;BME280;56376;53.356;-1.748;2023-03-17T12:10:36;98109.69;;;13.76;100.00
69257;BME280;56376;53.356;-1.748;2023-03-17T12:15:43;98106.06;;;13.66;100.00
69257;BME280;56376;53.356;-1.748;2023-03-17T12:18:20;98110.13;;;13.70;100.00
69257;BME280;56376;53.356;-1.748;2023-03-17T12:20:57;98106.16;;;13.64;98.87
69257;BME280;56376;53.356;-1.748;2023-03-17T12:26:24;98112.19;;;13.54;99.03
69257;BME280;56376;53.356;-1.748;2023-03-17T12:31:52;98105.59;;;13.48;98.99
69257;BME280;56376;53.356;-1.748;2023-03-17T12:34:29;98096.03;;;13.47;100.00
69257;BME280;56376;53.356;-1.748;2023-03-17T12:36:57;98095.78;;;13.50;99.70
69257;BME280;56376;53.356;-1.748;2023-03-17T12:39:31;98100.00;;;13.53;99.30
69257;BME280;56376;53.356;-1.748;2023-03-17T12:45:14;98098.41;;;13.87;98.81
69257;BME280;56376;53.356;-1.748;2023-03-17T12:55:51;98091.50;;;14.45;96.91
69257;BME280;56376;53.356;-1.748;2023-03-17T13:01:07;98083.50;;;14.47;95.20
69257;BME280;56376;53.356;-1.748;2023-03-17T13:03:43;98075.34;;;14.39;94.60
69257;BME280;56376;53.356;-1.748;2023-03-17T13:06:15;98069.25;;;14.27;94.48
69257;BME280;56376;53.356;-1.748;2023-03-17T13:08:43;98067.19;;;14.19;93.82
69257;BME280;56376;53.356;-1.748;2023-03-17T13:11:17;98070.72;;;14.07;93.02
69257;BME280;56376;53.356;-1.748;2023-03-17T13:16:38;98063.50;;;13.98;92.25
69257;BME280;56376;53.356;-1.748;2023-03-17T13:19:13;98068.53;;;14.01;92.76
69257;BME280;56376;53.356;-1.748;2023-03-17T13:22:22;98067.41;;;14.16;94.13
69257;BME280;56376;53.356;-1.748;2023-03-17T13:24:48;98062.69;;;14.33;92.93
69257;BME280;56376;53.356;-1.748;2023-03-17T13:29:58;98054.38;;;14.50;91.76
69257;BME280;56376;53.356;-1.748;2023-03-17T13:34:51;98061.94;;;14.66;91.59
69257;BME280;56376;53.356;-1.748;2023-03-17T13:45:18;98037.25;;;14.91;88.79
69257;BME280;56376;53.356;-1.748;2023-03-17T13:47:46;98038.44;;;14.98;88.23
69257;BME280;56376;53.356;-1.748;2023-03-17T13:50:16;98022.16;;;15.04;88.82
69257;BME280;56376;53.356;-1.748;2023-03-17T13:52:54;98036.50;;;15.11;87.37
69257;BME280;56376;53.356;-1.748;2023-03-17T14:00:39;98026.94;;;15.22;88.15
69257;BME280;56376;53.356;-1.748;2023-03-17T14:05:41;98031.50;;;15.08;86.88
69257;BME280;56376;53.356;-1.748;2023-03-17T14:10:55;98022.91;;;15.06;85.75
69257;BME280;56376;53.356;-1.748;2023-03-17T14:13:24;98021.13;;;15.07;87.12
69257;BME280;56376;53.356;-1.748;2023-03-17T14:16:27;98024.56;;;14.96;83.98
69257;BME280;56376;53.356;-1.748;2023-03-17T14:18:59;98031.53;;;14.97;84.75
69257;BME280;56376;53.356;-1.748;2023-03-17T14:21:33;98028.03;;;14.97;83.94
69257;BME280;56376;53.356;-1.748;2023-03-17T14:24:00;98025.78;;;14.92;80.58
69257;BME280;56376;53.356;-1.748;2023-03-17T14:26:31;98015.97;;;14.94;82.61
69257;BME280;56376;53.356;-1.748;2023-03-17T14:29:01;98022.19;;;14.93;83.19
69257;BME280;56376;53.356;-1.748;2023-03-17T14:31:28;98021.22;;;14.94;83.05
69257;BME280;56376;53.356;-1.748;2023-03-17T14:33:55;98015.50;;;14.89;82.23
69257;BME280;56376;53.356;-1.748;2023-03-17T14:36:21;98020.75;;;14.89;81.87